createdAt,value
2019-02-22T00:01:07.249Z,15.06
2019-02-22T00:04:09.009Z,15.00
2019-02-22T00:07:10.484Z,15.00
2019-02-22T00:10:12.023Z,15.00
2019-02-22T00:13:13.714Z,14.94
2019-02-22T00:16:15.120Z,14.94
2019-02-22T00:19:17.857Z,14.87
2019-02-22T00:22:19.309Z,14.87
2019-02-22T00:25:20.733Z,14.87
2019-02-22T00:28:22.236Z,14.81
2019-02-22T00:31:23.703Z,14.81
2019-02-22T00:34:25.247Z,14.75
2019-02-22T00:37:26.717Z,14.75
2019-02-22T00:40:28.096Z,14.69
2019-02-22T00:43:29.902Z,14.69
2019-02-22T00:46:31.599Z,14.69
2019-02-22T00:49:33.329Z,14.63
2019-02-22T00:52:34.763Z,14.63
2019-02-22T00:55:36.140Z,14.63
2019-02-22T00:58:37.571Z,14.56
2019-02-22T01:01:39.012Z,14.56
2019-02-22T01:04:40.384Z,14.50
2019-02-22T01:07:42.908Z,14.50
2019-02-22T01:10:44.297Z,14.44
2019-02-22T01:13:45.738Z,14.44
2019-02-22T01:16:47.125Z,14.44
2019-02-22T01:19:48.522Z,14.38
2019-02-22T01:22:50.045Z,14.38
2019-02-22T01:25:51.505Z,14.38
2019-02-22T01:28:53.294Z,14.31
2019-02-22T01:31:54.669Z,14.31
2019-02-22T01:34:56.143Z,14.31
2019-02-22T01:37:57.514Z,14.25
2019-02-22T01:40:58.964Z,14.25
2019-02-22T01:44:00.356Z,14.25
2019-02-22T01:47:01.747Z,14.19
2019-02-22T01:50:03.227Z,14.19
2019-02-22T01:53:05.402Z,14.19
2019-02-22T01:56:06.808Z,14.13
2019-02-22T01:59:08.356Z,14.13
2019-02-22T02:02:09.770Z,14.13
2019-02-22T02:05:11.209Z,14.06
2019-02-22T02:08:12.596Z,14.06
2019-02-22T02:11:13.957Z,14.00
2019-02-22T02:14:15.395Z,14.00
2019-02-22T02:17:17.814Z,14.00
2019-02-22T02:20:19.453Z,14.00
2019-02-22T02:23:21.907Z,13.94
2019-02-22T02:26:23.286Z,13.94
2019-02-22T02:29:24.683Z,13.94
2019-02-22T02:32:26.067Z,13.88
2019-02-22T02:35:27.476Z,13.88
2019-02-22T02:38:28.897Z,13.81
2019-02-22T02:41:30.275Z,13.81
2019-02-22T02:44:31.730Z,13.81
2019-02-22T02:47:33.100Z,13.81
2019-02-22T02:50:35.670Z,13.81
2019-02-22T02:53:37.877Z,13.75
2019-02-22T02:56:39.473Z,13.75
2019-02-22T02:59:41.359Z,13.75
2019-02-22T03:02:42.777Z,13.75
2019-02-22T03:06:12.423Z,13.69
2019-02-22T03:09:13.902Z,13.69
2019-02-22T03:12:15.370Z,13.69
2019-02-22T03:15:18.402Z,13.69
2019-02-22T03:18:19.949Z,13.62
2019-02-22T03:21:21.435Z,13.62
2019-02-22T03:24:22.840Z,13.62
2019-02-22T03:27:24.421Z,13.62
2019-02-22T03:30:25.962Z,13.62
2019-02-22T03:33:27.357Z,13.56
2019-02-22T03:36:28.834Z,13.56
2019-02-22T03:39:30.198Z,13.56
2019-02-22T03:42:31.574Z,13.56
2019-02-22T03:45:32.956Z,13.56
2019-02-22T03:48:34.326Z,13.50
2019-02-22T03:51:35.732Z,13.50
2019-02-22T03:54:37.125Z,13.50
2019-02-22T03:57:38.549Z,13.50
2019-02-22T04:00:39.995Z,13.44
2019-02-22T04:03:41.728Z,13.44
2019-02-22T04:06:43.635Z,13.44
2019-02-22T04:09:45.157Z,13.44
2019-02-22T04:12:46.840Z,13.44
2019-02-22T04:15:48.286Z,13.38
2019-02-22T04:18:49.610Z,13.38
2019-02-22T04:21:51.028Z,13.38
2019-02-22T04:24:52.556Z,13.31
2019-02-22T04:27:54.220Z,13.31
2019-02-22T04:30:55.724Z,13.31
2019-02-22T04:33:57.169Z,13.31
2019-02-22T04:36:58.594Z,13.31
2019-02-22T04:39:59.977Z,13.25
2019-02-22T04:43:01.371Z,13.25
2019-02-22T04:46:02.810Z,13.25
2019-02-22T04:49:04.284Z,13.19
2019-02-22T04:52:05.747Z,13.19
2019-02-22T04:55:07.159Z,13.19
2019-02-22T04:58:08.586Z,13.19
2019-02-22T05:01:10.032Z,13.13
2019-02-22T05:04:11.459Z,13.13
2019-02-22T05:07:12.988Z,13.13
2019-02-22T05:10:14.326Z,13.13
2019-02-22T05:13:15.796Z,13.06
2019-02-22T05:16:17.177Z,13.06
2019-02-22T05:19:18.554Z,13.06
2019-02-22T05:22:19.953Z,13.06
2019-02-22T05:25:21.357Z,13.00
2019-02-22T05:28:22.821Z,13.00
2019-02-22T05:31:24.223Z,13.00
2019-02-22T05:34:25.644Z,13.00
2019-02-22T05:37:27.073Z,12.94
2019-02-22T05:40:28.464Z,12.94
2019-02-22T05:43:29.881Z,12.94
2019-02-22T05:46:31.269Z,12.94
2019-02-22T05:49:32.705Z,12.94
2019-02-22T05:52:34.066Z,12.88
2019-02-22T05:55:35.483Z,12.88
2019-02-22T05:58:36.902Z,12.88
2019-02-22T06:01:38.288Z,12.88
2019-02-22T06:04:39.765Z,12.88
2019-02-22T06:07:41.158Z,12.81
2019-02-22T06:10:42.532Z,12.81
2019-02-22T06:13:43.936Z,12.81
2019-02-22T06:16:45.686Z,12.81
2019-02-22T06:19:47.298Z,12.75
2019-02-22T06:22:48.848Z,12.81
2019-02-22T06:25:50.294Z,12.75
2019-02-22T06:28:52.070Z,12.75
2019-02-22T06:31:54.026Z,12.75
2019-02-22T06:34:55.771Z,12.75
2019-02-22T06:37:57.195Z,12.75
2019-02-22T06:40:58.583Z,12.75
2019-02-22T06:43:59.968Z,12.69
2019-02-22T06:47:01.434Z,12.69
2019-02-22T06:50:02.818Z,12.69
2019-02-22T06:53:04.287Z,12.69
2019-02-22T06:56:05.693Z,12.69
2019-02-22T06:59:07.131Z,12.69
2019-02-22T07:02:08.587Z,12.69
2019-02-22T07:05:09.986Z,12.69
2019-02-22T07:08:11.392Z,12.69
2019-02-22T07:11:31.741Z,12.69
2019-02-22T07:14:33.187Z,12.69
2019-02-22T07:17:34.600Z,12.69
2019-02-22T07:20:37.042Z,12.69
2019-02-22T07:23:38.437Z,12.69
2019-02-22T07:26:39.863Z,12.69
2019-02-22T07:29:41.345Z,12.69
2019-02-22T07:32:42.859Z,12.69
2019-02-22T07:35:44.325Z,12.69
2019-02-22T07:38:45.916Z,12.69
2019-02-22T07:41:47.279Z,12.69
2019-02-22T07:44:48.703Z,12.69
2019-02-22T07:47:50.088Z,12.69
2019-02-22T07:50:57.967Z,12.69
2019-02-22T07:53:54.604Z,12.75
2019-02-22T07:56:56.017Z,12.75
2019-02-22T07:59:57.812Z,12.75
2019-02-22T08:02:59.884Z,12.75
2019-02-22T08:06:02.502Z,12.81
2019-02-22T08:09:05.385Z,12.81
2019-02-22T08:12:07.179Z,12.88
2019-02-22T08:15:10.089Z,13.00
2019-02-22T08:18:11.558Z,13.13
2019-02-22T08:21:13.991Z,13.25
2019-02-22T08:24:15.537Z,13.38
2019-02-22T08:27:16.979Z,13.50
2019-02-22T08:30:18.443Z,13.50
2019-02-22T08:33:19.854Z,13.50
2019-02-22T08:36:21.341Z,13.44
2019-02-22T08:39:22.887Z,13.50
2019-02-22T08:42:24.572Z,13.50
2019-02-22T08:45:26.063Z,13.50
2019-02-22T08:48:27.538Z,13.50
2019-02-22T08:51:28.941Z,13.56
2019-02-22T08:54:30.454Z,13.56
2019-02-22T08:57:31.961Z,13.62
2019-02-22T09:00:33.506Z,13.69
2019-02-22T09:03:35.119Z,13.69
2019-02-22T09:06:36.559Z,13.69
2019-02-22T09:09:38.177Z,13.75
2019-02-22T09:12:39.788Z,13.81
2019-02-22T09:15:41.219Z,13.88
2019-02-22T09:18:42.640Z,13.88
2019-02-22T09:21:44.175Z,13.88
2019-02-22T09:24:45.567Z,13.88
2019-02-22T09:27:46.988Z,13.88
2019-02-22T09:30:48.589Z,14.00
2019-02-22T09:33:50.000Z,14.06
2019-02-22T09:36:51.383Z,14.19
2019-02-22T09:39:52.811Z,14.25
2019-02-22T09:42:54.222Z,14.31
2019-02-22T09:45:55.628Z,14.44
2019-02-22T09:48:57.035Z,14.56
2019-02-22T09:51:58.492Z,14.69
2019-02-22T09:54:59.936Z,14.75
2019-02-22T09:58:01.324Z,14.81
2019-02-22T10:01:03.492Z,14.81
2019-02-22T10:04:05.241Z,14.75
2019-02-22T10:07:07.037Z,14.75
2019-02-22T10:10:10.589Z,14.81
2019-02-22T10:13:11.986Z,14.87
2019-02-22T10:16:13.436Z,14.94
2019-02-22T10:19:14.958Z,15.06
2019-02-22T10:22:17.348Z,15.25
2019-02-22T10:25:18.828Z,15.31
2019-02-22T10:28:20.245Z,15.38
2019-02-22T10:31:21.705Z,15.44
2019-02-22T10:34:23.151Z,15.63
2019-02-22T10:37:24.575Z,15.94
2019-02-22T10:40:25.951Z,16.31
2019-02-22T10:43:27.417Z,16.62
2019-02-22T10:46:28.803Z,16.81
2019-02-22T10:49:30.338Z,17.00
2019-02-22T10:52:32.112Z,17.19
2019-02-22T10:55:33.505Z,17.31
2019-02-22T10:58:35.007Z,17.69
2019-02-22T11:01:36.503Z,17.94
2019-02-22T11:04:37.940Z,18.19
2019-02-22T11:07:39.439Z,18.50
2019-02-22T11:10:40.851Z,18.81
2019-02-22T11:13:42.315Z,19.12
2019-02-22T11:16:43.752Z,19.31
2019-02-22T11:19:45.215Z,19.50
2019-02-22T11:22:46.647Z,19.62
2019-02-22T11:25:48.092Z,19.75
2019-02-22T11:28:49.475Z,19.87
2019-02-22T11:31:51.364Z,20.25
2019-02-22T11:34:52.849Z,20.69
2019-02-22T11:37:54.311Z,21.31
2019-02-22T11:40:55.781Z,21.50
2019-02-22T11:43:57.267Z,21.50
2019-02-22T11:46:59.238Z,21.56
2019-02-22T11:50:00.866Z,21.62
2019-02-22T11:53:04.041Z,21.69
2019-02-22T11:56:05.589Z,22.06
2019-02-22T11:59:07.214Z,22.19
2019-02-22T12:02:09.490Z,22.37
2019-02-22T12:05:11.102Z,22.50
2019-02-22T12:08:13.690Z,22.62
2019-02-22T12:11:15.432Z,22.62
2019-02-22T12:14:16.972Z,22.69
2019-02-22T12:17:18.440Z,22.75
2019-02-22T12:20:20.062Z,22.94
2019-02-22T12:23:21.618Z,22.81
2019-02-22T12:26:23.114Z,22.75
2019-02-22T12:29:24.922Z,22.94
2019-02-22T12:32:26.400Z,23.44
2019-02-22T12:35:28.027Z,25.50
2019-02-22T12:38:30.787Z,26.37
2019-02-22T12:41:32.592Z,27.19
2019-02-22T12:44:34.375Z,26.94
2019-02-22T12:47:37.477Z,25.56
2019-02-22T12:50:40.615Z,26.00
2019-02-22T12:53:42.185Z,25.37
2019-02-22T12:56:57.004Z,26.12
2019-02-22T12:59:49.400Z,26.19
2019-02-22T13:03:01.596Z,26.19
2019-02-22T13:05:54.562Z,26.81
2019-02-22T13:08:56.126Z,27.13
2019-02-22T13:11:57.596Z,25.62
2019-02-22T13:14:59.037Z,25.75
2019-02-22T13:18:02.960Z,26.94
2019-02-22T13:21:03.805Z,26.69
2019-02-22T13:24:05.354Z,25.56
2019-02-22T13:27:06.883Z,25.31
2019-02-22T13:30:10.980Z,26.12
2019-02-22T13:33:12.548Z,25.88
2019-02-22T13:36:14.799Z,25.37
2019-02-22T13:39:16.732Z,25.19
2019-02-22T13:42:18.312Z,25.56
2019-02-22T13:45:26.720Z,25.37
2019-02-22T13:48:23.209Z,25.12
2019-02-22T13:51:24.772Z,24.87
2019-02-22T13:54:26.270Z,24.75
2019-02-22T13:57:30.264Z,24.69
2019-02-22T14:00:31.048Z,24.75
2019-02-22T14:03:32.754Z,24.75
2019-02-22T14:06:34.221Z,25.00
2019-02-22T14:09:36.694Z,25.37
2019-02-22T14:12:38.154Z,25.19
2019-02-22T14:15:39.635Z,25.25
2019-02-22T14:18:41.098Z,25.00
2019-02-22T14:21:42.750Z,24.69
2019-02-22T14:24:44.166Z,24.37
2019-02-22T14:27:45.663Z,24.12
2019-02-22T14:30:47.123Z,24.00
2019-02-22T14:33:48.521Z,23.87
2019-02-22T14:36:50.783Z,23.69
2019-02-22T14:40:02.305Z,23.69
2019-02-22T14:42:55.462Z,23.81
2019-02-22T14:46:07.563Z,23.69
2019-02-22T14:49:27.544Z,23.50
2019-02-22T14:52:32.918Z,23.31
2019-02-22T14:55:35.078Z,23.25
2019-02-22T14:58:36.682Z,23.06
2019-02-22T15:01:38.278Z,22.94
2019-02-22T15:04:40.320Z,22.75
2019-02-22T15:07:41.929Z,22.62
2019-02-22T15:10:44.873Z,22.75
2019-02-22T15:13:46.543Z,22.62
2019-02-22T15:16:59.320Z,22.69
2019-02-22T15:20:00.944Z,22.75
2019-02-22T15:23:05.749Z,22.75
2019-02-22T15:26:07.602Z,22.81
2019-02-22T15:29:09.282Z,22.69
2019-02-22T15:32:12.567Z,22.44
2019-02-22T15:35:15.234Z,22.31
2019-02-22T15:38:19.982Z,22.25
2019-02-22T15:41:45.250Z,22.25
2019-02-22T15:44:48.378Z,22.37
2019-02-22T15:47:49.983Z,23.44
2019-02-22T15:50:51.883Z,24.50
2019-02-22T15:53:53.604Z,24.56
2019-02-22T15:56:56.782Z,24.56
2019-02-22T16:00:01.282Z,24.12
2019-02-22T16:03:13.292Z,23.31
2019-02-22T16:06:16.753Z,22.81
2019-02-22T16:09:18.396Z,22.50
2019-02-22T16:12:20.509Z,22.31
2019-02-22T16:15:22.267Z,22.19
2019-02-22T16:18:24.426Z,22.50
2019-02-22T16:21:26.651Z,22.75
2019-02-22T16:24:28.435Z,22.75
2019-02-22T16:27:30.545Z,22.75
2019-02-22T16:30:35.254Z,22.62
2019-02-22T16:33:37.175Z,22.50
2019-02-22T16:36:38.937Z,22.31
2019-02-22T16:39:41.083Z,22.00
2019-02-22T16:42:44.137Z,21.81
2019-02-22T16:45:47.161Z,21.56
2019-02-22T16:48:49.013Z,21.31
2019-02-22T16:51:51.971Z,21.12
2019-02-22T16:54:56.098Z,20.94
2019-02-22T16:58:04.129Z,20.81
2019-02-22T17:01:07.859Z,20.69
2019-02-22T17:04:12.013Z,20.62
2019-02-22T17:07:14.160Z,20.56
2019-02-22T17:10:19.312Z,20.50
2019-02-22T17:13:21.975Z,20.44
2019-02-22T17:16:25.310Z,20.31
2019-02-22T17:19:30.689Z,20.31
2019-02-22T17:22:32.699Z,20.31
2019-02-22T17:25:35.730Z,20.31
2019-02-22T17:28:38.856Z,20.31
2019-02-22T17:31:43.876Z,20.25
2019-02-22T17:34:46.644Z,20.25
2019-02-22T17:37:48.848Z,20.06
2019-02-22T17:40:51.042Z,19.94
2019-02-22T17:43:55.436Z,19.81
2019-02-22T17:46:57.988Z,19.75
2019-02-22T17:50:00.031Z,19.62
2019-02-22T17:53:03.889Z,19.56
2019-02-22T17:56:07.129Z,19.50
2019-02-22T17:59:09.022Z,19.44
2019-02-22T18:02:10.885Z,19.37
2019-02-22T18:05:13.003Z,19.31
2019-02-22T18:08:14.899Z,19.25
2019-02-22T18:11:20.463Z,19.19
2019-02-22T18:14:22.372Z,19.12
2019-02-22T18:17:32.398Z,19.06
2019-02-22T18:20:35.742Z,19.00
2019-02-22T18:23:36.853Z,18.94
2019-02-22T18:26:38.699Z,18.81
2019-02-22T18:29:40.169Z,18.69
2019-02-22T18:32:41.740Z,18.56
2019-02-22T18:35:43.691Z,18.44
2019-02-22T18:38:45.360Z,18.37
2019-02-22T18:41:47.326Z,18.25
2019-02-22T18:44:49.025Z,18.19
2019-02-22T18:47:50.444Z,18.06
2019-02-22T18:50:51.910Z,18.00
2019-02-22T18:53:54.450Z,17.94
2019-02-22T18:56:56.282Z,17.87
2019-02-22T18:59:57.838Z,17.75
2019-02-22T19:03:00.399Z,17.69
2019-02-22T19:06:01.993Z,17.62
2019-02-22T19:09:03.679Z,17.56
2019-02-22T19:12:07.061Z,17.50
2019-02-22T19:15:11.454Z,17.44
2019-02-22T19:18:12.995Z,17.37
2019-02-22T19:21:14.538Z,17.25
2019-02-22T19:24:16.056Z,17.19
2019-02-22T19:27:17.586Z,17.12
2019-02-22T19:30:20.098Z,17.06
2019-02-22T19:33:21.870Z,17.00
2019-02-22T19:36:23.437Z,16.94
2019-02-22T19:39:25.250Z,16.87
2019-02-22T19:42:27.038Z,16.81
2019-02-22T19:45:28.639Z,16.75
2019-02-22T19:48:30.366Z,16.69
2019-02-22T19:51:32.265Z,16.62
2019-02-22T19:54:33.832Z,16.56
2019-02-22T19:57:35.414Z,16.50
2019-02-22T20:00:36.996Z,16.44
2019-02-22T20:03:38.566Z,16.44
2019-02-22T20:06:40.144Z,16.37
2019-02-22T20:09:41.813Z,16.31
2019-02-22T20:12:43.606Z,16.25
2019-02-22T20:15:45.466Z,16.19
2019-02-22T20:18:47.031Z,16.12
2019-02-22T20:21:48.500Z,16.06
2019-02-22T20:24:50.234Z,16.00
2019-02-22T20:27:52.072Z,15.94
2019-02-22T20:30:53.560Z,15.88
2019-02-22T20:33:56.249Z,15.81
2019-02-22T20:36:57.787Z,15.75
2019-02-22T20:39:59.691Z,15.75
2019-02-22T20:43:01.237Z,15.69
2019-02-22T20:46:02.848Z,15.63
2019-02-22T20:49:04.411Z,15.56
2019-02-22T20:52:05.915Z,15.50
2019-02-22T20:55:08.810Z,15.44
2019-02-22T20:58:10.316Z,15.38
2019-02-22T21:01:14.774Z,15.38
2019-02-22T21:04:16.141Z,15.31
2019-02-22T21:07:17.679Z,15.25
2019-02-22T21:10:19.784Z,15.19
2019-02-22T21:13:21.375Z,15.13
2019-02-22T21:16:22.922Z,15.13
2019-02-22T21:19:24.636Z,15.06
2019-02-22T21:22:26.248Z,15.00
2019-02-22T21:25:27.748Z,14.94
2019-02-22T21:28:29.261Z,14.87
2019-02-22T21:31:30.814Z,14.81
2019-02-22T21:34:32.306Z,14.81
2019-02-22T21:37:33.807Z,14.75
2019-02-22T21:40:35.334Z,14.69
2019-02-22T21:43:37.350Z,14.69
2019-02-22T21:46:39.045Z,14.63
2019-02-22T21:49:40.808Z,14.56
2019-02-22T21:52:42.399Z,14.50
2019-02-22T21:55:43.908Z,14.50
2019-02-22T21:58:45.343Z,14.44
2019-02-22T22:01:46.851Z,14.38
2019-02-22T22:04:48.293Z,14.31
2019-02-22T22:07:49.778Z,14.25
2019-02-22T22:10:51.265Z,14.25
2019-02-22T22:13:53.034Z,14.19
2019-02-22T22:16:54.525Z,14.13
2019-02-22T22:19:55.977Z,14.06
2019-02-22T22:22:57.442Z,14.06
2019-02-22T22:25:58.969Z,14.00
2019-02-22T22:29:00.482Z,13.94
2019-02-22T22:32:01.928Z,13.88
2019-02-22T22:35:03.420Z,13.88
2019-02-22T22:38:04.919Z,13.81
2019-02-22T22:41:06.844Z,13.75
2019-02-22T22:44:08.512Z,13.69
2019-02-22T22:47:09.934Z,13.69
2019-02-22T22:50:12.829Z,13.62
2019-02-22T22:53:14.376Z,13.62
2019-02-22T22:56:15.818Z,13.56
2019-02-22T22:59:17.305Z,13.50
2019-02-22T23:02:18.916Z,13.44
2019-02-22T23:05:20.427Z,13.44
2019-02-22T23:08:21.912Z,13.38
2019-02-22T23:11:24.004Z,13.31
2019-02-22T23:14:25.576Z,13.31
2019-02-22T23:17:27.020Z,13.25
2019-02-22T23:20:28.516Z,13.19
2019-02-22T23:23:31.919Z,13.19
2019-02-22T23:26:33.612Z,13.13
2019-02-22T23:29:35.124Z,13.06
2019-02-22T23:32:36.602Z,13.06
2019-02-22T23:35:38.016Z,13.00
2019-02-22T23:38:39.459Z,12.94
2019-02-22T23:41:41.972Z,12.94
2019-02-22T23:44:43.399Z,12.88
2019-02-22T23:47:45.640Z,12.81
2019-02-22T23:50:47.336Z,12.75
2019-02-22T23:53:49.183Z,12.75
2019-02-22T23:56:50.718Z,12.75
2019-02-22T23:59:52.139Z,12.69
